createdAt,value
2023-05-01T00:00:19.421Z,2.60
2023-05-01T00:01:52.398Z,2.40
2023-05-01T00:03:24.303Z,2.20
2023-05-01T00:04:57.017Z,2.30
2023-05-01T00:06:28.890Z,2.80
2023-05-01T00:08:00.696Z,2.50
2023-05-01T00:09:32.424Z,2.60
2023-05-01T00:11:05.665Z,2.80
2023-05-01T00:12:37.644Z,2.70
2023-05-01T00:14:09.467Z,2.30
2023-05-01T00:15:42.502Z,2.30
2023-05-01T00:17:14.682Z,2.20
2023-05-01T00:18:46.394Z,2.30
2023-05-01T00:20:18.284Z,2.30
2023-05-01T00:21:52.425Z,2.20
2023-05-01T00:23:24.221Z,2.20
2023-05-01T00:24:56.101Z,2.50
2023-05-01T00:26:31.161Z,2.50
2023-05-01T00:28:03.221Z,2.50
2023-05-01T00:29:35.056Z,2.30
2023-05-01T00:31:06.864Z,2.20
2023-05-01T00:32:39.791Z,2.60
2023-05-01T00:34:11.991Z,2.70
2023-05-01T00:35:45.236Z,2.70
2023-05-01T00:37:17.542Z,2.70
2023-05-01T00:38:49.461Z,2.50
2023-05-01T00:40:21.352Z,2.60
2023-05-01T00:41:54.898Z,2.80
2023-05-01T00:43:26.769Z,3.00
2023-05-01T00:44:58.596Z,2.70
2023-05-01T00:46:33.266Z,2.90
2023-05-01T00:48:06.223Z,2.40
2023-05-01T00:49:37.977Z,2.10
2023-05-01T00:51:09.879Z,2.00
2023-05-01T00:52:42.524Z,2.00
2023-05-01T00:54:14.391Z,2.60
2023-05-01T00:55:46.514Z,2.60
2023-05-01T00:57:22.747Z,2.40
2023-05-01T00:58:55.294Z,3.10
2023-05-01T01:00:27.327Z,2.70
2023-05-01T01:01:59.136Z,2.90
2023-05-01T01:03:31.525Z,2.90
2023-05-01T01:05:05.136Z,3.00
2023-05-01T01:06:53.761Z,2.90
2023-05-01T01:08:42.383Z,2.80
2023-05-01T01:10:29.768Z,2.80
2023-05-01T01:12:32.290Z,2.70
2023-05-01T01:14:16.480Z,2.80
2023-05-01T01:16:12.463Z,2.60
2023-05-01T01:17:59.539Z,2.90
2023-05-01T01:20:06.492Z,2.80
2023-05-01T01:21:47.425Z,2.50
2023-05-01T01:24:02.679Z,2.50
2023-05-01T01:26:11.565Z,2.70
2023-05-01T01:28:23.281Z,2.50
2023-05-01T01:30:46.537Z,2.70
2023-05-01T01:33:01.530Z,2.40
2023-05-01T01:34:40.119Z,2.80
2023-05-01T01:36:20.235Z,2.90
2023-05-01T01:38:07.987Z,2.40
2023-05-01T01:40:04.253Z,2.90
2023-05-01T01:41:38.614Z,2.40
2023-05-01T01:43:17.057Z,2.90
2023-05-01T01:44:56.061Z,3.10
2023-05-01T01:46:28.840Z,2.80
2023-05-01T01:48:03.013Z,2.60
2023-05-01T01:49:42.435Z,3.10
2023-05-01T01:51:19.317Z,3.20
2023-05-01T01:52:54.487Z,2.80
2023-05-01T01:54:37.673Z,2.90
2023-05-01T01:56:10.775Z,2.60
2023-05-01T01:57:46.913Z,2.90
2023-05-01T01:59:23.152Z,3.00
2023-05-01T02:00:57.628Z,3.00
2023-05-01T02:02:31.178Z,2.90
2023-05-01T02:04:05.473Z,3.00
2023-05-01T02:05:42.442Z,2.40
2023-05-01T02:07:17.136Z,3.20
2023-05-01T02:08:51.601Z,3.00
2023-05-01T02:10:27.270Z,2.90
2023-05-01T02:12:02.629Z,3.30
2023-05-01T02:13:39.291Z,3.20
2023-05-01T02:15:11.869Z,3.10
2023-05-01T02:16:45.283Z,3.00
2023-05-01T02:18:19.197Z,3.00
2023-05-01T02:19:55.357Z,2.80
2023-05-01T02:21:31.212Z,3.00
2023-05-01T02:23:05.691Z,3.30
2023-05-01T02:24:40.250Z,2.90
2023-05-01T02:26:17.710Z,3.10
2023-05-01T02:28:03.719Z,3.30
2023-05-01T02:29:35.669Z,3.10
2023-05-01T02:31:07.480Z,3.50
2023-05-01T02:32:39.380Z,2.90
2023-05-01T02:34:11.452Z,2.80
2023-05-01T02:35:47.289Z,3.30
2023-05-01T02:37:20.922Z,3.30
2023-05-01T02:38:54.604Z,3.20
2023-05-01T02:40:27.106Z,3.40
2023-05-01T02:42:03.212Z,3.00
2023-05-01T02:43:37.153Z,3.30
2023-05-01T02:45:19.152Z,2.90
2023-05-01T02:46:53.506Z,3.10
2023-05-01T02:48:28.571Z,2.70
2023-05-01T02:50:02.589Z,3.00
2023-05-01T02:51:36.180Z,3.00
2023-05-01T02:53:08.715Z,3.00
2023-05-01T02:54:47.115Z,3.30
2023-05-01T02:56:19.540Z,3.00
2023-05-01T02:57:51.858Z,3.30
2023-05-01T02:59:23.705Z,3.30
2023-05-01T03:00:55.970Z,3.10
2023-05-01T03:02:29.144Z,3.40
2023-05-01T03:04:01.130Z,3.20
2023-05-01T03:05:33.053Z,2.90
2023-05-01T03:07:04.961Z,3.00
2023-05-01T03:08:37.449Z,3.10
2023-05-01T03:10:10.986Z,3.40
2023-05-01T03:11:42.790Z,3.40
2023-05-01T03:13:14.665Z,3.10
2023-05-01T03:14:46.664Z,3.20
2023-05-01T03:16:18.605Z,2.90
2023-05-01T03:17:50.551Z,3.10
2023-05-01T03:19:22.373Z,2.80
2023-05-01T03:20:56.842Z,3.30
2023-05-01T03:22:33.146Z,2.90
2023-05-01T03:24:05.646Z,3.80
2023-05-01T03:25:38.076Z,2.90
2023-05-01T03:27:10.074Z,3.00
2023-05-01T03:28:41.952Z,2.60
2023-05-01T03:30:13.744Z,2.70
2023-05-01T03:31:45.934Z,3.30
2023-05-01T03:33:17.849Z,3.20
2023-05-01T03:34:50.124Z,2.80
2023-05-01T03:36:22.927Z,2.80
2023-05-01T03:37:55.651Z,3.00
2023-05-01T03:39:51.704Z,3.00
2023-05-01T03:41:55.379Z,2.80
2023-05-01T03:43:33.541Z,3.00
2023-05-01T03:45:09.097Z,3.10
2023-05-01T03:46:41.358Z,3.20
2023-05-01T03:48:15.456Z,3.10
2023-05-01T03:49:47.695Z,3.00
2023-05-01T03:51:19.437Z,3.20
2023-05-01T03:52:51.279Z,3.50
2023-05-01T03:54:23.434Z,2.80
2023-05-01T03:56:04.669Z,3.20
2023-05-01T03:57:37.113Z,3.20
2023-05-01T03:59:08.980Z,3.20
2023-05-01T04:00:41.791Z,3.10
2023-05-01T04:02:13.627Z,2.90
2023-05-01T04:03:46.632Z,2.80
2023-05-01T04:05:18.988Z,2.90
2023-05-01T04:06:55.008Z,2.90
2023-05-01T04:08:26.965Z,2.90
2023-05-01T04:09:58.860Z,3.00
2023-05-01T04:11:30.735Z,3.20
2023-05-01T04:13:02.479Z,3.20
2023-05-01T04:14:34.287Z,3.00
2023-05-01T04:16:07.351Z,3.30
2023-05-01T04:17:39.792Z,3.60
2023-05-01T04:19:11.959Z,3.00
2023-05-01T04:20:46.776Z,2.90
2023-05-01T04:22:19.540Z,3.10
2023-05-01T04:23:51.340Z,3.00
2023-05-01T04:25:23.194Z,3.30
2023-05-01T04:26:56.326Z,3.20
2023-05-01T04:28:31.010Z,3.30
2023-05-01T04:30:03.292Z,3.50
2023-05-01T04:31:36.184Z,2.80
2023-05-01T04:33:11.691Z,3.20
2023-05-01T04:34:44.828Z,3.60
2023-05-01T04:36:17.075Z,2.90
2023-05-01T04:37:49.467Z,3.10
2023-05-01T04:39:21.382Z,3.20
2023-05-01T04:40:53.115Z,2.80
2023-05-01T04:42:31.650Z,2.60
2023-05-01T04:44:04.110Z,3.20
2023-05-01T04:45:35.901Z,2.70
2023-05-01T04:47:08.036Z,2.90
2023-05-01T04:48:40.920Z,2.80
2023-05-01T04:50:12.644Z,3.10
2023-05-01T04:51:45.532Z,3.00
2023-05-01T04:53:18.397Z,2.50
2023-05-01T04:54:50.545Z,3.00
2023-05-01T04:56:23.326Z,2.10
2023-05-01T04:57:57.820Z,2.80
2023-05-01T04:59:29.697Z,3.00
2023-05-01T05:01:01.878Z,2.90
2023-05-01T05:02:33.820Z,2.70
2023-05-01T05:04:06.224Z,2.90
2023-05-01T05:05:38.576Z,3.00
2023-05-01T05:07:11.174Z,2.50
2023-05-01T05:09:01.575Z,2.90
2023-05-01T05:10:33.477Z,2.50
2023-05-01T05:12:25.540Z,2.50
2023-05-01T05:13:57.389Z,2.70
2023-05-01T05:15:29.484Z,3.20
2023-05-01T05:17:01.493Z,2.90
2023-05-01T05:18:33.307Z,2.90
2023-05-01T05:20:06.418Z,2.70
2023-05-01T05:21:38.194Z,2.50
2023-05-01T05:23:10.310Z,2.50
2023-05-01T05:24:42.104Z,2.80
2023-05-01T05:26:13.957Z,3.20
2023-05-01T05:27:45.914Z,2.90
2023-05-01T05:29:17.945Z,3.00
2023-05-01T05:30:49.816Z,2.60
2023-05-01T05:32:22.817Z,2.80
2023-05-01T05:33:54.815Z,2.90
2023-05-01T05:35:27.672Z,3.50
2023-05-01T05:36:59.767Z,3.10
2023-05-01T05:38:31.682Z,3.30
2023-05-01T05:40:04.713Z,3.00
2023-05-01T05:41:40.303Z,2.80
2023-05-01T05:43:12.658Z,3.20
2023-05-01T05:44:44.657Z,3.10
2023-05-01T05:46:16.684Z,2.90
2023-05-01T05:47:48.679Z,2.80
2023-05-01T05:49:20.696Z,2.80
2023-05-01T05:50:52.653Z,2.90
2023-05-01T05:52:24.643Z,2.70
2023-05-01T05:53:56.461Z,3.20
2023-05-01T05:55:28.561Z,3.10
2023-05-01T05:57:07.584Z,3.20
2023-05-01T05:58:39.970Z,3.00
2023-05-01T06:00:14.252Z,3.40
2023-05-01T06:01:47.846Z,3.30
2023-05-01T06:03:20.299Z,3.00
2023-05-01T06:04:52.172Z,3.00
2023-05-01T06:06:26.362Z,3.70
2023-05-01T06:07:58.141Z,3.80
2023-05-01T06:09:30.227Z,3.80
2023-05-01T06:11:02.183Z,3.40
2023-05-01T06:12:35.736Z,3.30
2023-05-01T06:14:09.583Z,3.50
2023-05-01T06:15:42.282Z,3.40
2023-05-01T06:17:14.421Z,3.70
2023-05-01T06:18:46.655Z,4.10
2023-05-01T06:20:18.814Z,3.50
2023-05-01T06:21:51.264Z,3.60
2023-05-01T06:23:23.035Z,3.10
2023-05-01T06:25:15.220Z,3.50
2023-05-01T06:26:47.223Z,3.80
2023-05-01T06:28:18.987Z,3.00
2023-05-01T06:29:51.256Z,3.20
2023-05-01T06:31:23.595Z,3.50
2023-05-01T06:32:58.642Z,3.80
2023-05-01T06:34:31.113Z,3.70
2023-05-01T06:36:04.751Z,3.80
2023-05-01T06:37:38.393Z,3.00
2023-05-01T06:39:11.366Z,3.80
2023-05-01T06:40:43.445Z,3.60
2023-05-01T06:42:16.826Z,3.40
2023-05-01T06:43:48.588Z,2.90
2023-05-01T06:45:21.349Z,3.00
2023-05-01T06:46:55.270Z,3.40
2023-05-01T06:48:27.188Z,3.60
2023-05-01T06:50:02.422Z,3.80
2023-05-01T06:51:38.003Z,4.10
2023-05-01T06:53:09.739Z,3.70
2023-05-01T06:54:41.796Z,3.50
2023-05-01T06:56:13.883Z,3.60
2023-05-01T06:57:45.950Z,3.40
2023-05-01T06:59:17.657Z,3.30
2023-05-01T07:00:49.981Z,3.10
2023-05-01T07:02:22.061Z,3.70
2023-05-01T07:03:53.868Z,3.40
2023-05-01T07:05:25.726Z,4.00
2023-05-01T07:06:57.455Z,3.50
2023-05-01T07:08:29.464Z,3.70
2023-05-01T07:10:01.203Z,3.50
2023-05-01T07:11:33.794Z,3.40
2023-05-01T07:13:05.522Z,3.20
2023-05-01T07:14:37.274Z,3.30
2023-05-01T07:16:09.218Z,2.80
2023-05-01T07:17:41.239Z,3.90
2023-05-01T07:19:13.800Z,3.70
2023-05-01T07:20:46.050Z,3.50
2023-05-01T07:22:19.419Z,3.30
2023-05-01T07:23:51.838Z,3.60
2023-05-01T07:25:25.093Z,3.50
2023-05-01T07:26:56.828Z,2.90
2023-05-01T07:28:28.777Z,3.60
2023-05-01T07:30:05.158Z,3.20
2023-05-01T07:31:37.757Z,3.60
2023-05-01T07:33:09.813Z,3.10
2023-05-01T07:34:41.653Z,3.60
2023-05-01T07:36:14.096Z,3.50
2023-05-01T07:37:45.812Z,3.40
2023-05-01T07:39:17.858Z,3.40
2023-05-01T07:40:53.800Z,3.10
2023-05-01T07:42:27.693Z,3.30
2023-05-01T07:43:59.991Z,3.50
2023-05-01T07:45:32.159Z,3.20
2023-05-01T07:47:06.337Z,3.30
2023-05-01T07:48:39.023Z,2.80
2023-05-01T07:50:12.945Z,2.60
2023-05-01T07:51:45.609Z,2.90
2023-05-01T07:53:17.640Z,3.00
2023-05-01T07:54:51.211Z,3.00
2023-05-01T07:56:23.115Z,3.20
2023-05-01T07:57:54.888Z,3.10
2023-05-01T07:59:26.641Z,3.20
2023-05-01T08:00:58.626Z,2.80
2023-05-01T08:02:30.508Z,2.90
2023-05-01T08:04:02.566Z,2.90
2023-05-01T08:05:34.399Z,3.10
2023-05-01T08:07:06.229Z,3.00
2023-05-01T08:08:38.081Z,2.60
2023-05-01T08:10:10.527Z,3.10
2023-05-01T08:11:42.269Z,2.60
2023-05-01T08:13:14.323Z,2.70
2023-05-01T08:14:46.415Z,2.90
2023-05-01T08:16:21.729Z,3.00
2023-05-01T08:17:53.968Z,2.50
2023-05-01T08:19:27.993Z,2.70
2023-05-01T08:20:59.820Z,2.70
2023-05-01T08:22:32.114Z,2.70
2023-05-01T08:24:04.270Z,2.50
2023-05-01T08:25:36.013Z,2.40
2023-05-01T08:27:08.974Z,2.70
2023-05-01T08:28:40.754Z,2.70
2023-05-01T08:30:12.897Z,2.70
2023-05-01T08:31:45.413Z,2.40
2023-05-01T08:33:17.967Z,2.70
2023-05-01T08:34:49.923Z,2.40
2023-05-01T08:36:21.855Z,2.60
2023-05-01T08:37:53.648Z,2.30
2023-05-01T08:39:25.440Z,2.70
2023-05-01T08:40:58.822Z,2.50
2023-05-01T08:42:32.244Z,2.40
2023-05-01T08:44:05.396Z,2.50
2023-05-01T08:45:38.342Z,2.40
2023-05-01T08:47:15.304Z,2.90
2023-05-01T08:48:48.515Z,2.10
2023-05-01T08:50:23.634Z,2.70
2023-05-01T08:51:57.057Z,2.00
2023-05-01T08:53:33.283Z,2.60
2023-05-01T08:55:08.659Z,2.40
2023-05-01T08:56:44.738Z,2.80
2023-05-01T08:58:19.838Z,2.30
2023-05-01T08:59:56.490Z,2.50
2023-05-01T09:01:30.272Z,2.30
2023-05-01T09:03:04.511Z,2.40
2023-05-01T09:04:39.732Z,2.60
2023-05-01T09:06:12.367Z,2.50
2023-05-01T09:07:46.536Z,2.30
2023-05-01T09:09:18.313Z,2.10
2023-05-01T09:10:54.117Z,2.50
2023-05-01T09:12:27.759Z,2.40
2023-05-01T09:14:05.530Z,2.20
2023-05-01T09:15:38.104Z,2.70
2023-05-01T09:17:10.731Z,2.20
2023-05-01T09:18:42.754Z,2.40
2023-05-01T09:20:15.278Z,2.90
2023-05-01T09:21:47.522Z,2.60
2023-05-01T09:23:20.278Z,2.90
2023-05-01T09:24:52.231Z,2.70
2023-05-01T09:26:24.418Z,2.90
2023-05-01T09:27:57.255Z,2.80
2023-05-01T09:29:45.921Z,2.80
2023-05-01T09:31:32.712Z,2.60
2023-05-01T09:33:08.936Z,2.70
2023-05-01T09:34:41.085Z,2.70
2023-05-01T09:36:17.697Z,2.60
2023-05-01T09:37:50.169Z,2.60
2023-05-01T09:39:24.962Z,2.60
2023-05-01T09:41:04.953Z,2.00
2023-05-01T09:42:50.071Z,2.30
2023-05-01T09:44:22.659Z,2.50
2023-05-01T09:46:11.585Z,2.20
2023-05-01T09:47:44.194Z,2.30
2023-05-01T09:49:16.402Z,1.90
2023-05-01T09:50:48.355Z,1.60
2023-05-01T09:52:20.053Z,1.60
2023-05-01T09:53:52.475Z,1.70
2023-05-01T09:55:25.865Z,1.50
2023-05-01T09:56:58.510Z,2.00
2023-05-01T09:58:30.460Z,1.40
2023-05-01T10:00:08.309Z,1.60
2023-05-01T10:01:43.031Z,1.80
2023-05-01T10:03:15.482Z,2.00
2023-05-01T10:04:47.342Z,1.60
2023-05-01T10:06:29.035Z,1.70
2023-05-01T10:08:03.769Z,1.50
2023-05-01T10:09:35.722Z,1.70
2023-05-01T10:11:08.122Z,1.80
2023-05-01T10:12:39.868Z,1.60
2023-05-01T10:14:11.673Z,2.40
2023-05-01T10:15:46.914Z,1.40
2023-05-01T10:17:19.915Z,1.50
2023-05-01T10:18:52.225Z,1.70
2023-05-01T10:20:24.727Z,2.00
2023-05-01T10:21:56.707Z,2.10
2023-05-01T10:23:29.300Z,2.20
2023-05-01T10:25:04.489Z,2.20
2023-05-01T10:26:37.295Z,1.70
2023-05-01T10:28:10.322Z,1.90
2023-05-01T10:29:42.840Z,1.80
2023-05-01T10:31:15.908Z,1.80
2023-05-01T10:32:47.788Z,1.60
2023-05-01T10:34:26.429Z,1.90
2023-05-01T10:36:03.007Z,2.30
2023-05-01T10:37:46.476Z,1.80
2023-05-01T10:39:34.871Z,2.00
2023-05-01T10:41:06.700Z,2.20
2023-05-01T10:43:30.532Z,1.50
2023-05-01T10:45:30.964Z,1.80
2023-05-01T10:47:24.635Z,2.00
2023-05-01T10:48:57.879Z,2.00
2023-05-01T10:50:29.837Z,2.20
2023-05-01T10:52:03.706Z,1.80
2023-05-01T10:53:35.564Z,1.90
2023-05-01T10:55:44.996Z,2.00
2023-05-01T10:57:44.522Z,2.00
2023-05-01T10:59:16.514Z,2.20
2023-05-01T11:01:30.224Z,2.00
2023-05-01T11:03:21.115Z,1.80
2023-05-01T11:04:54.299Z,2.00
2023-05-01T11:06:27.274Z,2.20
2023-05-01T11:08:33.055Z,1.80
2023-05-01T11:10:26.129Z,2.10
2023-05-01T11:11:57.908Z,2.20
2023-05-01T11:14:11.344Z,2.00
2023-05-01T11:15:43.245Z,1.70
2023-05-01T11:17:43.696Z,1.90
2023-05-01T11:19:21.688Z,1.90
2023-05-01T11:20:53.423Z,1.80
2023-05-01T11:22:26.121Z,2.00
2023-05-01T11:23:57.997Z,1.60
2023-05-01T11:25:32.915Z,1.80
2023-05-01T11:27:05.045Z,1.40
2023-05-01T11:28:38.499Z,1.70
2023-05-01T11:30:11.380Z,1.60
2023-05-01T11:31:48.818Z,1.80
2023-05-01T11:33:26.135Z,2.30
2023-05-01T11:34:58.643Z,2.00
2023-05-01T11:36:49.412Z,1.40
2023-05-01T11:38:21.794Z,1.40
2023-05-01T11:39:53.744Z,1.70
2023-05-01T11:41:27.274Z,1.90
2023-05-01T11:43:04.657Z,1.80
2023-05-01T11:44:37.560Z,2.00
2023-05-01T11:46:09.549Z,1.70
2023-05-01T11:47:42.026Z,2.10
2023-05-01T11:49:14.790Z,2.20
2023-05-01T11:50:46.895Z,1.90
2023-05-01T11:52:19.092Z,1.70
2023-05-01T11:54:09.369Z,1.70
2023-05-01T11:55:41.602Z,1.80
2023-05-01T11:57:14.233Z,1.90
2023-05-01T11:58:47.363Z,1.90
2023-05-01T12:00:41.688Z,1.90
2023-05-01T12:02:21.277Z,1.90
2023-05-01T12:03:53.255Z,2.50
2023-05-01T12:05:30.765Z,2.00
2023-05-01T12:07:03.629Z,1.80
2023-05-01T12:08:35.920Z,1.30
2023-05-01T12:10:09.057Z,2.00
2023-05-01T12:11:41.332Z,2.10
2023-05-01T12:13:14.985Z,1.90
2023-05-01T12:14:46.875Z,1.60
2023-05-01T12:16:19.031Z,1.90
2023-05-01T12:17:51.422Z,1.20
2023-05-01T12:19:24.043Z,1.80
2023-05-01T12:20:56.424Z,1.80
2023-05-01T12:22:29.558Z,1.60
2023-05-01T12:24:18.880Z,1.30
2023-05-01T12:25:51.209Z,1.70
2023-05-01T12:27:23.094Z,1.70
2023-05-01T12:29:02.267Z,1.90
2023-05-01T12:30:34.849Z,1.60
2023-05-01T12:32:09.149Z,1.80
2023-05-01T12:33:56.831Z,1.70
2023-05-01T12:35:31.977Z,2.20
2023-05-01T12:37:05.325Z,2.00
2023-05-01T12:38:37.822Z,1.50
2023-05-01T12:40:17.080Z,1.80
2023-05-01T12:41:49.616Z,1.70
2023-05-01T12:43:30.747Z,1.60
2023-05-01T12:45:02.537Z,1.90
2023-05-01T12:46:34.297Z,1.70
2023-05-01T12:48:16.453Z,1.80
2023-05-01T12:49:48.357Z,1.70
2023-05-01T12:51:21.173Z,1.80
2023-05-01T12:52:53.014Z,1.80
2023-05-01T12:54:29.412Z,2.00
2023-05-01T12:56:03.235Z,1.70
2023-05-01T12:57:35.368Z,1.90
2023-05-01T12:59:07.179Z,1.60
2023-05-01T13:00:51.384Z,1.90
2023-05-01T13:02:31.998Z,1.50
2023-05-01T13:04:04.324Z,1.70
2023-05-01T13:05:36.118Z,1.70
2023-05-01T13:07:15.747Z,1.80
2023-05-01T13:08:47.628Z,1.50
2023-05-01T13:10:31.476Z,1.70
2023-05-01T13:12:05.875Z,1.60
2023-05-01T13:13:37.700Z,1.70
2023-05-01T13:15:22.931Z,1.70
2023-05-01T13:16:55.896Z,1.70
2023-05-01T13:18:29.608Z,1.60
2023-05-01T13:20:05.056Z,1.70
2023-05-01T13:21:45.812Z,2.00
2023-05-01T13:23:17.772Z,2.00
2023-05-01T13:24:50.634Z,2.00
2023-05-01T13:26:35.727Z,1.90
2023-05-01T13:28:09.048Z,1.60
2023-05-01T13:29:45.683Z,2.20
2023-05-01T13:31:17.564Z,1.90
2023-05-01T13:32:49.688Z,2.00
2023-05-01T13:34:33.617Z,2.00
2023-05-01T13:36:17.801Z,2.10
2023-05-01T13:37:56.967Z,2.00
2023-05-01T13:39:29.077Z,2.70
2023-05-01T13:41:00.843Z,2.30
2023-05-01T13:42:32.790Z,1.90
2023-05-01T13:44:06.862Z,1.90
2023-05-01T13:45:38.653Z,2.50
2023-05-01T13:47:17.877Z,4.10
2023-05-01T13:48:49.957Z,2.40
2023-05-01T13:50:22.561Z,2.00
2023-05-01T13:51:55.613Z,3.50
2023-05-01T13:53:28.995Z,1.80
2023-05-01T13:55:02.156Z,1.60
2023-05-01T13:56:41.491Z,3.50
2023-05-01T13:58:13.343Z,2.40
2023-05-01T13:59:47.380Z,2.30
2023-05-01T14:01:22.836Z,1.80
2023-05-01T14:02:56.493Z,2.20
2023-05-01T14:04:28.810Z,2.00
2023-05-01T14:06:00.726Z,2.40
2023-05-01T14:07:32.694Z,1.80
2023-05-01T14:09:05.705Z,1.70
2023-05-01T14:10:38.558Z,2.10
2023-05-01T14:12:12.500Z,2.10
2023-05-01T14:13:48.540Z,2.10
2023-05-01T14:15:20.632Z,2.00
2023-05-01T14:16:52.557Z,1.80
2023-05-01T14:18:24.380Z,2.20
2023-05-01T14:19:56.152Z,1.90
2023-05-01T14:21:28.406Z,2.00
2023-05-01T14:23:00.344Z,2.00
2023-05-01T14:24:40.480Z,2.20
2023-05-01T14:26:18.524Z,2.30
2023-05-01T14:27:55.048Z,2.10
2023-05-01T14:29:28.107Z,1.90
2023-05-01T14:30:59.946Z,2.10
2023-05-01T14:32:40.777Z,1.90
2023-05-01T14:34:19.762Z,2.40
2023-05-01T14:35:55.382Z,1.60
2023-05-01T14:37:27.247Z,1.90
2023-05-01T14:39:01.905Z,1.70
2023-05-01T14:40:34.738Z,1.60
2023-05-01T14:42:06.923Z,2.00
2023-05-01T14:43:43.007Z,1.50
2023-05-01T14:45:19.006Z,1.70
2023-05-01T14:46:51.869Z,1.70
2023-05-01T14:48:29.654Z,1.70
2023-05-01T14:50:01.424Z,1.50
2023-05-01T14:51:33.432Z,1.60
2023-05-01T14:53:05.288Z,1.80
2023-05-01T14:54:46.660Z,1.60
2023-05-01T14:56:18.640Z,1.40
2023-05-01T14:57:50.513Z,1.20
2023-05-01T14:59:24.640Z,1.60
2023-05-01T15:00:57.547Z,1.10
2023-05-01T15:02:30.453Z,1.40
2023-05-01T15:04:03.910Z,1.50
2023-05-01T15:05:38.375Z,1.40
2023-05-01T15:07:10.410Z,1.40
2023-05-01T15:08:42.212Z,1.30
2023-05-01T15:10:15.398Z,1.50
2023-05-01T15:11:47.318Z,1.50
2023-05-01T15:13:19.861Z,1.80
2023-05-01T15:14:51.793Z,1.70
2023-05-01T15:16:23.606Z,1.80
2023-05-01T15:17:55.759Z,1.90
2023-05-01T15:19:28.417Z,1.80
2023-05-01T15:21:01.156Z,3.00
2023-05-01T15:22:32.993Z,2.10
2023-05-01T15:24:04.700Z,1.80
2023-05-01T15:25:37.060Z,1.60
2023-05-01T15:27:09.019Z,2.00
2023-05-01T15:28:41.015Z,2.50
2023-05-01T15:30:14.962Z,2.60
2023-05-01T15:31:49.301Z,2.20
2023-05-01T15:33:24.065Z,2.00
2023-05-01T15:34:57.169Z,2.20
2023-05-01T15:36:29.223Z,3.00
2023-05-01T15:38:01.106Z,2.40
2023-05-01T15:39:33.542Z,3.30
2023-05-01T15:41:06.038Z,3.00
2023-05-01T15:42:37.859Z,3.30
2023-05-01T15:44:11.184Z,3.50
2023-05-01T15:45:44.538Z,4.10
2023-05-01T15:47:16.682Z,3.50
2023-05-01T15:48:49.034Z,3.60
2023-05-01T15:50:22.081Z,3.00
2023-05-01T15:51:54.715Z,3.90
2023-05-01T15:53:26.476Z,2.80
2023-05-01T15:54:58.284Z,3.40
2023-05-01T15:56:34.931Z,3.30
2023-05-01T15:58:06.812Z,3.00
2023-05-01T15:59:40.663Z,2.90
2023-05-01T16:01:12.676Z,2.70
2023-05-01T16:02:44.935Z,2.60
2023-05-01T16:04:16.736Z,3.10
2023-05-01T16:05:48.707Z,3.00
2023-05-01T16:07:21.728Z,2.50
2023-05-01T16:08:53.779Z,2.70
2023-05-01T16:10:25.860Z,2.70
2023-05-01T16:11:59.571Z,2.90
2023-05-01T16:13:31.724Z,2.90
2023-05-01T16:15:05.677Z,2.90
2023-05-01T16:16:41.677Z,2.40
2023-05-01T16:18:23.281Z,3.20
2023-05-01T16:19:55.247Z,3.20
2023-05-01T16:21:28.428Z,3.50
2023-05-01T16:23:00.459Z,3.30
2023-05-01T16:24:36.536Z,3.30
2023-05-01T16:26:10.034Z,3.40
2023-05-01T16:27:45.836Z,3.70
2023-05-01T16:29:18.579Z,3.90
2023-05-01T16:30:50.668Z,3.80
2023-05-01T16:32:24.317Z,4.00
2023-05-01T16:33:56.667Z,4.20
2023-05-01T16:35:28.766Z,4.20
2023-05-01T16:37:00.644Z,3.20
2023-05-01T16:38:33.211Z,3.90
2023-05-01T16:40:09.321Z,4.50
2023-05-01T16:41:47.642Z,3.90
2023-05-01T16:43:22.393Z,3.80
2023-05-01T16:44:54.321Z,4.20
2023-05-01T16:46:26.718Z,2.60
2023-05-01T16:47:59.161Z,2.30
2023-05-01T16:49:30.974Z,1.80
2023-05-01T16:51:06.170Z,1.60
2023-05-01T16:52:39.438Z,1.50
2023-05-01T16:54:11.556Z,1.70
2023-05-01T16:55:44.787Z,1.40
2023-05-01T16:57:17.212Z,1.60
2023-05-01T16:58:48.966Z,1.30
2023-05-01T17:00:21.003Z,1.50
2023-05-01T17:01:52.949Z,1.90
2023-05-01T17:03:25.103Z,1.30
2023-05-01T17:04:56.849Z,1.20
2023-05-01T17:06:28.887Z,1.20
2023-05-01T17:08:00.784Z,1.30
2023-05-01T17:09:32.556Z,1.00
2023-05-01T17:11:06.507Z,1.30
2023-05-01T17:12:38.320Z,1.20
2023-05-01T17:14:10.029Z,1.20
2023-05-01T17:15:41.885Z,1.50
2023-05-01T17:17:15.846Z,1.70
2023-05-01T17:18:47.599Z,1.60
2023-05-01T17:20:19.438Z,1.50
2023-05-01T17:21:51.191Z,1.70
2023-05-01T17:23:23.005Z,1.60
2023-05-01T17:24:54.849Z,1.70
2023-05-01T17:26:26.834Z,1.40
2023-05-01T17:27:59.093Z,1.60
2023-05-01T17:29:30.927Z,1.50
2023-05-01T17:31:02.656Z,1.60
2023-05-01T17:32:37.481Z,2.20
2023-05-01T17:34:09.707Z,2.00
2023-05-01T17:35:41.859Z,2.00
2023-05-01T17:37:15.306Z,2.00
2023-05-01T17:38:47.078Z,1.90
2023-05-01T17:40:19.357Z,1.90
2023-05-01T17:41:51.403Z,1.80
2023-05-01T17:43:23.239Z,1.90
2023-05-01T17:44:55.084Z,1.60
2023-05-01T17:46:27.034Z,1.60
2023-05-01T17:47:58.951Z,2.00
2023-05-01T17:49:30.725Z,1.80
2023-05-01T17:51:02.951Z,1.80
2023-05-01T17:52:35.066Z,1.80
2023-05-01T17:54:06.921Z,2.20
2023-05-01T17:55:39.165Z,1.80
2023-05-01T17:57:11.160Z,1.80
2023-05-01T17:58:42.911Z,1.60
2023-05-01T18:00:16.200Z,2.00
2023-05-01T18:01:48.382Z,2.00
2023-05-01T18:03:20.678Z,1.70
2023-05-01T18:04:53.878Z,2.00
2023-05-01T18:06:25.771Z,1.80
2023-05-01T18:07:57.611Z,2.80
2023-05-01T18:09:29.394Z,2.70
2023-05-01T18:11:01.209Z,2.00
2023-05-01T18:12:33.244Z,2.00
2023-05-01T18:14:05.274Z,1.70
2023-05-01T18:15:37.187Z,2.10
2023-05-01T18:17:09.235Z,3.20
2023-05-01T18:18:41.779Z,3.30
2023-05-01T18:20:13.578Z,3.40
2023-05-01T18:21:45.461Z,3.90
2023-05-01T18:23:19.782Z,4.00
2023-05-01T18:24:51.636Z,3.70
2023-05-01T18:26:26.175Z,4.20
2023-05-01T18:27:58.749Z,4.00
2023-05-01T18:29:31.353Z,3.90
2023-05-01T18:31:04.030Z,4.40
2023-05-01T18:32:46.750Z,4.70
2023-05-01T18:34:19.485Z,3.80
2023-05-01T18:35:51.456Z,4.20
2023-05-01T18:37:25.000Z,4.40
2023-05-01T18:38:56.796Z,4.20
2023-05-01T18:40:28.594Z,4.30
2023-05-01T18:42:00.432Z,4.00
2023-05-01T18:43:32.282Z,3.80
2023-05-01T18:45:04.869Z,3.90
2023-05-01T18:46:36.833Z,4.40
2023-05-01T18:48:09.072Z,3.70
2023-05-01T18:49:40.896Z,4.10
2023-05-01T18:51:14.067Z,4.40
2023-05-01T18:52:45.869Z,3.90
2023-05-01T18:54:17.758Z,3.60
2023-05-01T18:55:49.500Z,4.90
2023-05-01T18:57:21.405Z,3.70
2023-05-01T18:58:54.274Z,4.30
2023-05-01T19:00:26.546Z,4.30
2023-05-01T19:01:58.751Z,4.40
2023-05-01T19:03:30.662Z,4.90
2023-05-01T19:05:03.330Z,5.00
2023-05-01T19:06:35.364Z,4.60
2023-05-01T19:08:09.023Z,4.10
2023-05-01T19:09:40.899Z,5.60
2023-05-01T19:11:12.695Z,4.70
2023-05-01T19:12:44.435Z,5.10
2023-05-01T19:14:16.416Z,5.40
2023-05-01T19:15:48.210Z,4.80
2023-05-01T19:17:19.993Z,5.60
2023-05-01T19:18:52.444Z,5.10
2023-05-01T19:20:24.266Z,5.20
2023-05-01T19:21:56.073Z,5.00
2023-05-01T19:23:30.540Z,5.20
2023-05-01T19:25:02.855Z,5.00
2023-05-01T19:26:34.576Z,4.70
2023-05-01T19:28:06.331Z,4.80
2023-05-01T19:29:39.870Z,4.30
2023-05-01T19:31:13.131Z,5.20
2023-05-01T19:32:46.713Z,5.70
2023-05-01T19:34:19.864Z,5.50
2023-05-01T19:35:51.770Z,5.00
2023-05-01T19:37:23.697Z,5.40
2023-05-01T19:38:55.433Z,5.00
2023-05-01T19:40:27.199Z,5.10
2023-05-01T19:41:59.188Z,5.40
2023-05-01T19:43:30.965Z,5.70
2023-05-01T19:45:02.935Z,5.40
2023-05-01T19:46:35.019Z,4.90
2023-05-01T19:48:07.162Z,5.30
2023-05-01T19:49:39.208Z,5.00
2023-05-01T19:51:11.004Z,5.60
2023-05-01T19:52:43.019Z,5.30
2023-05-01T19:54:14.828Z,5.20
2023-05-01T19:55:48.093Z,5.20
2023-05-01T19:57:20.119Z,5.30
2023-05-01T19:58:54.868Z,5.10
2023-05-01T20:00:27.975Z,5.40
2023-05-01T20:02:01.492Z,5.20
2023-05-01T20:03:33.531Z,4.80
2023-05-01T20:05:05.675Z,5.50
2023-05-01T20:06:37.481Z,5.40
2023-05-01T20:08:09.319Z,5.70
2023-05-01T20:09:41.224Z,5.40
2023-05-01T20:11:13.034Z,4.60
2023-05-01T20:12:44.923Z,5.10
2023-05-01T20:14:16.919Z,5.60
2023-05-01T20:15:49.234Z,5.40
2023-05-01T20:17:20.938Z,5.90
2023-05-01T20:18:52.848Z,5.60
2023-05-01T20:20:24.619Z,6.00
2023-05-01T20:21:56.395Z,6.40
2023-05-01T20:23:29.182Z,6.10
2023-05-01T20:25:01.021Z,5.20
2023-05-01T20:26:32.919Z,5.00
2023-05-01T20:28:06.784Z,5.00
2023-05-01T20:29:39.375Z,5.00
2023-05-01T20:31:12.390Z,5.40
2023-05-01T20:32:44.551Z,5.20
2023-05-01T20:34:16.495Z,5.40
2023-05-01T20:35:48.486Z,4.60
2023-05-01T20:37:22.432Z,5.00
2023-05-01T20:38:57.669Z,5.00
2023-05-01T20:40:30.045Z,5.20
2023-05-01T20:42:01.981Z,4.80
2023-05-01T20:43:33.698Z,5.30
2023-05-01T20:45:06.471Z,5.00
2023-05-01T20:46:38.253Z,4.50
2023-05-01T20:48:11.388Z,4.40
2023-05-01T20:49:43.660Z,5.00
2023-05-01T20:51:18.071Z,5.00
2023-05-01T20:52:50.156Z,5.90
2023-05-01T20:54:21.977Z,5.90
2023-05-01T20:55:53.829Z,6.30
2023-05-01T20:57:27.688Z,6.30